sensor_id;sensor_type;location;lat;lon;timestamp;temperature;humidity
33739;DHT22;20063;51.730;11.110;2022-09-03T00:02:32;15.70;99.90
33739;DHT22;20063;51.730;11.110;2022-09-03T00:05:18;15.60;99.90
33739;DHT22;20063;51.730;11.110;2022-09-03T00:10:45;15.30;99.90
33739;DHT22;20063;51.730;11.110;2022-09-03T00:13:26;15.20;99.90
33739;DHT22;20063;51.730;11.110;2022-09-03T00:15:54;15.10;99.90
33739;DHT22;20063;51.730;11.110;2022-09-03T00:18:24;15.10;99.90
33739;DHT22;20063;51.730;11.110;2022-09-03T00:21:03;15.00;99.90
33739;DHT22;20063;51.730;11.110;2022-09-03T00:23:38;14.90;99.90
33739;DHT22;20063;51.730;11.110;2022-09-03T00:28:58;14.70;99.90
33739;DHT22;20063;51.730;11.110;2022-09-03T00:31:48;14.60;99.90
33739;DHT22;20063;51.730;11.110;2022-09-03T00:36:46;14.40;99.90
33739;DHT22;20063;51.730;11.110;2022-09-03T00:39:14;14.30;99.90
33739;DHT22;20063;51.730;11.110;2022-09-03T00:45:03;14.20;99.90
33739;DHT22;20063;51.730;11.110;2022-09-03T01:01:27;14.70;99.90
33739;DHT22;20063;51.730;11.110;2022-09-03T01:09:44;14.80;99.90
33739;DHT22;20063;51.730;11.110;2022-09-03T01:12:26;14.90;99.90
33739;DHT22;20063;51.730;11.110;2022-09-03T01:34:39;14.90;99.90
33739;DHT22;20063;51.730;11.110;2022-09-03T01:43:13;15.10;99.90
33739;DHT22;20063;51.730;11.110;2022-09-03T01:45:53;15.10;99.90
33739;DHT22;20063;51.730;11.110;2022-09-03T01:48:27;15.20;99.90
33739;DHT22;20063;51.730;11.110;2022-09-03T01:54:17;15.30;99.90
33739;DHT22;20063;51.730;11.110;2022-09-03T02:00:03;15.40;99.90
33739;DHT22;20063;51.730;11.110;2022-09-03T02:02:29;15.40;99.90
33739;DHT22;20063;51.730;11.110;2022-09-03T02:05:07;15.40;99.90
33739;DHT22;20063;51.730;11.110;2022-09-03T02:07:47;15.50;99.90
33739;DHT22;20063;51.730;11.110;2022-09-03T02:10:19;15.50;99.90
33739;DHT22;20063;51.730;11.110;2022-09-03T02:12:49;15.50;99.90
33739;DHT22;20063;51.730;11.110;2022-09-03T02:15:19;15.50;99.90
33739;DHT22;20063;51.730;11.110;2022-09-03T02:17:47;15.50;99.90
33739;DHT22;20063;51.730;11.110;2022-09-03T02:20:19;15.50;99.90
33739;DHT22;20063;51.730;11.110;2022-09-03T02:22:47;15.60;99.90
33739;DHT22;20063;51.730;11.110;2022-09-03T02:25:13;15.50;99.90
33739;DHT22;20063;51.730;11.110;2022-09-03T02:27:38;15.60;99.90
33739;DHT22;20063;51.730;11.110;2022-09-03T02:30:05;15.50;99.90
33739;DHT22;20063;51.730;11.110;2022-09-03T02:32:31;15.50;99.90
33739;DHT22;20063;51.730;11.110;2022-09-03T02:34:57;15.60;99.90
33739;DHT22;20063;51.730;11.110;2022-09-03T02:37:24;15.60;99.90
33739;DHT22;20063;51.730;11.110;2022-09-03T02:39:50;15.60;99.90
33739;DHT22;20063;51.730;11.110;2022-09-03T02:42:18;15.60;99.90
33739;DHT22;20063;51.730;11.110;2022-09-03T02:44:47;15.50;99.90
33739;DHT22;20063;51.730;11.110;2022-09-03T02:47:15;15.50;99.90
33739;DHT22;20063;51.730;11.110;2022-09-03T02:49:42;15.50;99.90
33739;DHT22;20063;51.730;11.110;2022-09-03T02:52:09;15.50;99.90
33739;DHT22;20063;51.730;11.110;2022-09-03T02:54:36;15.50;99.90
33739;DHT22;20063;51.730;11.110;2022-09-03T02:57:08;15.50;99.90
33739;DHT22;20063;51.730;11.110;2022-09-03T02:59:35;15.50;99.90
33739;DHT22;20063;51.730;11.110;2022-09-03T03:02:01;15.50;99.90
33739;DHT22;20063;51.730;11.110;2022-09-03T03:04:29;15.40;99.90
33739;DHT22;20063;51.730;11.110;2022-09-03T03:06:54;15.40;99.90
33739;DHT22;20063;51.730;11.110;2022-09-03T03:09:20;15.30;99.90
33739;DHT22;20063;51.730;11.110;2022-09-03T03:11:45;15.30;99.90
33739;DHT22;20063;51.730;11.110;2022-09-03T03:14:11;15.30;99.90
33739;DHT22;20063;51.730;11.110;2022-09-03T03:16:36;15.30;99.90
33739;DHT22;20063;51.730;11.110;2022-09-03T03:19:02;15.30;99.90
33739;DHT22;20063;51.730;11.110;2022-09-03T03:21:28;15.40;99.90
33739;DHT22;20063;51.730;11.110;2022-09-03T03:23:54;15.30;99.90
33739;DHT22;20063;51.730;11.110;2022-09-03T03:26:21;15.20;99.90
33739;DHT22;20063;51.730;11.110;2022-09-03T03:28:49;15.20;99.90
33739;DHT22;20063;51.730;11.110;2022-09-03T03:31:17;15.10;99.90
33739;DHT22;20063;51.730;11.110;2022-09-03T03:33:43;15.00;99.90
33739;DHT22;20063;51.730;11.110;2022-09-03T03:36:12;15.00;99.90
33739;DHT22;20063;51.730;11.110;2022-09-03T03:38:38;14.90;99.90
33739;DHT22;20063;51.730;11.110;2022-09-03T03:41:10;14.80;99.90
33739;DHT22;20063;51.730;11.110;2022-09-03T03:43:37;14.70;99.90
33739;DHT22;20063;51.730;11.110;2022-09-03T03:46:03;14.50;99.90
33739;DHT22;20063;51.730;11.110;2022-09-03T03:48:30;14.50;99.90
33739;DHT22;20063;51.730;11.110;2022-09-03T03:51:00;14.30;99.90
33739;DHT22;20063;51.730;11.110;2022-09-03T03:53:27;14.20;99.90
33739;DHT22;20063;51.730;11.110;2022-09-03T03:55:56;14.10;99.90
33739;DHT22;20063;51.730;11.110;2022-09-03T03:58:23;13.90;99.90
33739;DHT22;20063;51.730;11.110;2022-09-03T04:00:52;13.80;99.90
33739;DHT22;20063;51.730;11.110;2022-09-03T04:03:18;13.80;99.90
33739;DHT22;20063;51.730;11.110;2022-09-03T04:05:57;13.60;99.90
33739;DHT22;20063;51.730;11.110;2022-09-03T04:08:24;13.60;99.90
33739;DHT22;20063;51.730;11.110;2022-09-03T04:10:50;13.50;99.90
33739;DHT22;20063;51.730;11.110;2022-09-03T04:13:15;13.40;99.90
33739;DHT22;20063;51.730;11.110;2022-09-03T04:15:47;13.30;99.90
33739;DHT22;20063;51.730;11.110;2022-09-03T04:18:13;13.20;99.90
33739;DHT22;20063;51.730;11.110;2022-09-03T04:20:39;13.20;99.90
33739;DHT22;20063;51.730;11.110;2022-09-03T04:23:05;13.10;99.90
33739;DHT22;20063;51.730;11.110;2022-09-03T04:25:30;13.10;99.90
33739;DHT22;20063;51.730;11.110;2022-09-03T04:27:56;13.10;99.90
33739;DHT22;20063;51.730;11.110;2022-09-03T04:30:22;13.00;99.90
33739;DHT22;20063;51.730;11.110;2022-09-03T04:32:50;12.90;99.90
33739;DHT22;20063;51.730;11.110;2022-09-03T04:35:21;12.90;99.90
33739;DHT22;20063;51.730;11.110;2022-09-03T04:37:47;12.90;99.90
33739;DHT22;20063;51.730;11.110;2022-09-03T04:40:12;12.80;99.90
33739;DHT22;20063;51.730;11.110;2022-09-03T04:42:38;12.80;99.90
33739;DHT22;20063;51.730;11.110;2022-09-03T04:45:04;12.70;99.90
33739;DHT22;20063;51.730;11.110;2022-09-03T04:47:30;12.70;99.90
33739;DHT22;20063;51.730;11.110;2022-09-03T04:49:56;12.60;99.90
33739;DHT22;20063;51.730;11.110;2022-09-03T04:52:22;12.60;99.90
33739;DHT22;20063;51.730;11.110;2022-09-03T04:54:48;12.60;99.90
33739;DHT22;20063;51.730;11.110;2022-09-03T04:57:14;12.50;99.90
33739;DHT22;20063;51.730;11.110;2022-09-03T04:59:39;12.50;99.90
33739;DHT22;20063;51.730;11.110;2022-09-03T05:02:07;12.50;99.90
33739;DHT22;20063;51.730;11.110;2022-09-03T05:04:32;12.50;99.90
33739;DHT22;20063;51.730;11.110;2022-09-03T05:06:58;12.50;99.90
33739;DHT22;20063;51.730;11.110;2022-09-03T05:09:23;12.50;99.90
33739;DHT22;20063;51.730;11.110;2022-09-03T05:11:49;12.50;99.90
33739;DHT22;20063;51.730;11.110;2022-09-03T05:14:15;12.40;99.90
33739;DHT22;20063;51.730;11.110;2022-09-03T05:16:40;12.40;99.90
33739;DHT22;20063;51.730;11.110;2022-09-03T05:19:06;12.40;99.90
33739;DHT22;20063;51.730;11.110;2022-09-03T05:21:33;12.40;99.90
33739;DHT22;20063;51.730;11.110;2022-09-03T05:24:03;12.50;99.90
33739;DHT22;20063;51.730;11.110;2022-09-03T05:26:31;12.50;99.90
33739;DHT22;20063;51.730;11.110;2022-09-03T05:28:59;12.50;99.90
33739;DHT22;20063;51.730;11.110;2022-09-03T05:31:26;12.50;99.90
33739;DHT22;20063;51.730;11.110;2022-09-03T05:33:55;12.50;99.90
33739;DHT22;20063;51.730;11.110;2022-09-03T05:36:24;12.50;99.90
33739;DHT22;20063;51.730;11.110;2022-09-03T05:38:50;12.60;99.90
33739;DHT22;20063;51.730;11.110;2022-09-03T05:41:19;12.50;99.90
33739;DHT22;20063;51.730;11.110;2022-09-03T05:43:47;12.60;99.90
33739;DHT22;20063;51.730;11.110;2022-09-03T05:46:19;12.60;99.90
33739;DHT22;20063;51.730;11.110;2022-09-03T05:48:45;12.70;99.90
33739;DHT22;20063;51.730;11.110;2022-09-03T05:51:13;12.80;99.90
33739;DHT22;20063;51.730;11.110;2022-09-03T05:53:41;12.70;99.90
33739;DHT22;20063;51.730;11.110;2022-09-03T05:56:10;12.80;99.90
33739;DHT22;20063;51.730;11.110;2022-09-03T05:58:39;12.80;99.90
33739;DHT22;20063;51.730;11.110;2022-09-03T06:01:12;12.90;99.90
33739;DHT22;20063;51.730;11.110;2022-09-03T06:03:39;13.00;99.90
33739;DHT22;20063;51.730;11.110;2022-09-03T06:06:05;13.10;99.90
33739;DHT22;20063;51.730;11.110;2022-09-03T06:08:32;13.20;99.90
33739;DHT22;20063;51.730;11.110;2022-09-03T06:10:58;13.20;99.90
33739;DHT22;20063;51.730;11.110;2022-09-03T06:13:24;13.30;99.90
33739;DHT22;20063;51.730;11.110;2022-09-03T06:15:54;13.40;99.90
33739;DHT22;20063;51.730;11.110;2022-09-03T06:18:20;13.40;99.90
33739;DHT22;20063;51.730;11.110;2022-09-03T06:20:56;13.50;99.90
33739;DHT22;20063;51.730;11.110;2022-09-03T06:23:22;13.60;99.90
33739;DHT22;20063;51.730;11.110;2022-09-03T06:26:06;13.60;99.90
33739;DHT22;20063;51.730;11.110;2022-09-03T06:28:37;13.80;99.90
33739;DHT22;20063;51.730;11.110;2022-09-03T06:31:05;13.80;99.90
33739;DHT22;20063;51.730;11.110;2022-09-03T06:33:33;13.90;99.90
33739;DHT22;20063;51.730;11.110;2022-09-03T06:35:59;14.00;99.90
33739;DHT22;20063;51.730;11.110;2022-09-03T06:38:27;14.10;99.90
33739;DHT22;20063;51.730;11.110;2022-09-03T06:40:55;14.20;99.90
33739;DHT22;20063;51.730;11.110;2022-09-03T06:43:21;14.30;99.90
33739;DHT22;20063;51.730;11.110;2022-09-03T06:45:58;14.40;99.90
33739;DHT22;20063;51.730;11.110;2022-09-03T06:48:24;14.60;99.90
33739;DHT22;20063;51.730;11.110;2022-09-03T06:50:57;14.70;99.90
33739;DHT22;20063;51.730;11.110;2022-09-03T06:53:28;14.90;99.90
33739;DHT22;20063;51.730;11.110;2022-09-03T06:56:08;14.90;99.90
33739;DHT22;20063;51.730;11.110;2022-09-03T06:58:43;15.00;99.90
33739;DHT22;20063;51.730;11.110;2022-09-03T07:01:11;15.10;99.90
33739;DHT22;20063;51.730;11.110;2022-09-03T07:03:38;15.10;99.90
33739;DHT22;20063;51.730;11.110;2022-09-03T07:06:07;15.20;99.90
33739;DHT22;20063;51.730;11.110;2022-09-03T07:08:33;15.30;99.90
33739;DHT22;20063;51.730;11.110;2022-09-03T07:11:00;15.40;99.90
33739;DHT22;20063;51.730;11.110;2022-09-03T07:13:31;15.50;99.90
33739;DHT22;20063;51.730;11.110;2022-09-03T07:16:04;15.50;99.90
33739;DHT22;20063;51.730;11.110;2022-09-03T07:18:30;15.60;99.90
33739;DHT22;20063;51.730;11.110;2022-09-03T07:21:01;15.70;99.90
33739;DHT22;20063;51.730;11.110;2022-09-03T07:23:28;15.80;99.90
33739;DHT22;20063;51.730;11.110;2022-09-03T07:25:59;15.80;99.90
33739;DHT22;20063;51.730;11.110;2022-09-03T07:28:26;15.90;99.90
33739;DHT22;20063;51.730;11.110;2022-09-03T07:30:53;15.90;99.90
33739;DHT22;20063;51.730;11.110;2022-09-03T07:33:19;16.10;99.90
33739;DHT22;20063;51.730;11.110;2022-09-03T07:35:46;16.10;99.90
33739;DHT22;20063;51.730;11.110;2022-09-03T07:38:16;16.10;99.90
33739;DHT22;20063;51.730;11.110;2022-09-03T07:40:43;16.20;99.90
33739;DHT22;20063;51.730;11.110;2022-09-03T07:43:09;16.20;99.90
33739;DHT22;20063;51.730;11.110;2022-09-03T07:45:34;16.30;99.90
33739;DHT22;20063;51.730;11.110;2022-09-03T07:48:01;16.40;99.90
33739;DHT22;20063;51.730;11.110;2022-09-03T07:50:28;16.50;99.90
33739;DHT22;20063;51.730;11.110;2022-09-03T07:52:57;16.60;99.90
33739;DHT22;20063;51.730;11.110;2022-09-03T07:55:23;16.70;99.90
33739;DHT22;20063;51.730;11.110;2022-09-03T07:57:49;16.70;99.90
33739;DHT22;20063;51.730;11.110;2022-09-03T08:00:35;16.80;99.90
33739;DHT22;20063;51.730;11.110;2022-09-03T08:03:00;16.90;99.90
33739;DHT22;20063;51.730;11.110;2022-09-03T08:05:31;17.00;99.90
33739;DHT22;20063;51.730;11.110;2022-09-03T08:07:59;17.10;99.90
33739;DHT22;20063;51.730;11.110;2022-09-03T08:10:26;17.30;99.90
33739;DHT22;20063;51.730;11.110;2022-09-03T08:12:55;17.30;99.90
33739;DHT22;20063;51.730;11.110;2022-09-03T08:15:20;17.40;99.90
33739;DHT22;20063;51.730;11.110;2022-09-03T08:17:46;17.50;99.90
33739;DHT22;20063;51.730;11.110;2022-09-03T08:20:11;17.60;99.90
33739;DHT22;20063;51.730;11.110;2022-09-03T08:22:37;17.70;99.90
33739;DHT22;20063;51.730;11.110;2022-09-03T08:25:03;17.80;99.90
33739;DHT22;20063;51.730;11.110;2022-09-03T08:27:30;17.80;99.90
33739;DHT22;20063;51.730;11.110;2022-09-03T08:29:56;17.80;99.90
33739;DHT22;20063;51.730;11.110;2022-09-03T08:32:21;17.90;99.90
33739;DHT22;20063;51.730;11.110;2022-09-03T08:34:47;17.90;99.90
33739;DHT22;20063;51.730;11.110;2022-09-03T08:37:12;18.00;99.90
33739;DHT22;20063;51.730;11.110;2022-09-03T08:39:38;18.10;99.90
33739;DHT22;20063;51.730;11.110;2022-09-03T08:45:02;18.30;99.90
33739;DHT22;20063;51.730;11.110;2022-09-03T08:47:44;18.30;99.90
33739;DHT22;20063;51.730;11.110;2022-09-03T08:50:25;18.40;99.90
33739;DHT22;20063;51.730;11.110;2022-09-03T09:09:33;18.70;90.60
33739;DHT22;20063;51.730;11.110;2022-09-03T09:15:10;18.80;84.20
33739;DHT22;20063;51.730;11.110;2022-09-03T09:23:32;19.00;76.80
33739;DHT22;20063;51.730;11.110;2022-09-03T09:26:07;19.10;74.60
33739;DHT22;20063;51.730;11.110;2022-09-03T09:28:36;19.10;76.30
33739;DHT22;20063;51.730;11.110;2022-09-03T09:31:05;19.20;77.50
33739;DHT22;20063;51.730;11.110;2022-09-03T09:33:33;19.30;77.00
33739;DHT22;20063;51.730;11.110;2022-09-03T09:36:10;19.40;78.30
33739;DHT22;20063;51.730;11.110;2022-09-03T09:38:37;19.40;72.70
33739;DHT22;20063;51.730;11.110;2022-09-03T09:41:27;19.50;73.00
33739;DHT22;20063;51.730;11.110;2022-09-03T09:44:01;19.50;70.50
33739;DHT22;20063;51.730;11.110;2022-09-03T09:46:33;19.60;69.80
33739;DHT22;20063;51.730;11.110;2022-09-03T09:48:59;19.60;67.20
33739;DHT22;20063;51.730;11.110;2022-09-03T09:51:30;19.70;66.30
33739;DHT22;20063;51.730;11.110;2022-09-03T09:54:11;19.70;66.30
33739;DHT22;20063;51.730;11.110;2022-09-03T09:56:37;19.70;67.60
33739;DHT22;20063;51.730;11.110;2022-09-03T09:59:08;19.80;68.60
33739;DHT22;20063;51.730;11.110;2022-09-03T10:01:38;19.80;67.60
33739;DHT22;20063;51.730;11.110;2022-09-03T10:04:23;19.80;65.40
33739;DHT22;20063;51.730;11.110;2022-09-03T10:07:02;19.80;66.40
33739;DHT22;20063;51.730;11.110;2022-09-03T10:09:31;19.90;67.90
33739;DHT22;20063;51.730;11.110;2022-09-03T10:14:41;20.10;64.20
33739;DHT22;20063;51.730;11.110;2022-09-03T10:17:23;20.10;64.60
33739;DHT22;20063;51.730;11.110;2022-09-03T10:23:08;20.20;62.50
33739;DHT22;20063;51.730;11.110;2022-09-03T10:28:45;20.20;61.70
33739;DHT22;20063;51.730;11.110;2022-09-03T10:34:53;20.20;60.20
33739;DHT22;20063;51.730;11.110;2022-09-03T10:37:36;20.30;60.20
33739;DHT22;20063;51.730;11.110;2022-09-03T10:48:44;20.50;57.20
33739;DHT22;20063;51.730;11.110;2022-09-03T10:51:34;20.50;57.10
33739;DHT22;20063;51.730;11.110;2022-09-03T11:05:27;20.80;56.40
33739;DHT22;20063;51.730;11.110;2022-09-03T11:08:13;20.90;56.80
33739;DHT22;20063;51.730;11.110;2022-09-03T11:10:47;20.90;55.40
33739;DHT22;20063;51.730;11.110;2022-09-03T11:13:25;20.90;55.40
33739;DHT22;20063;51.730;11.110;2022-09-03T11:16:01;20.90;55.60
33739;DHT22;20063;51.730;11.110;2022-09-03T11:21:05;21.00;54.80
33739;DHT22;20063;51.730;11.110;2022-09-03T11:23:34;21.00;54.40
33739;DHT22;20063;51.730;11.110;2022-09-03T11:26:06;20.90;54.50
33739;DHT22;20063;51.730;11.110;2022-09-03T11:29:05;20.80;54.30
33739;DHT22;20063;51.730;11.110;2022-09-03T11:31:44;20.90;54.40
33739;DHT22;20063;51.730;11.110;2022-09-03T11:34:14;20.80;54.70
33739;DHT22;20063;51.730;11.110;2022-09-03T11:36:51;20.80;54.50
33739;DHT22;20063;51.730;11.110;2022-09-03T11:41:56;21.00;54.20
33739;DHT22;20063;51.730;11.110;2022-09-03T11:44:21;21.10;54.00
33739;DHT22;20063;51.730;11.110;2022-09-03T11:46:57;21.20;54.50
33739;DHT22;20063;51.730;11.110;2022-09-03T11:49:31;21.30;53.60
33739;DHT22;20063;51.730;11.110;2022-09-03T11:52:00;21.30;53.20
33739;DHT22;20063;51.730;11.110;2022-09-03T11:54:26;21.30;52.90
33739;DHT22;20063;51.730;11.110;2022-09-03T11:57:13;21.30;52.60
33739;DHT22;20063;51.730;11.110;2022-09-03T11:59:42;21.20;52.60
33739;DHT22;20063;51.730;11.110;2022-09-03T12:02:29;21.20;51.70
33739;DHT22;20063;51.730;11.110;2022-09-03T12:14:03;21.40;52.20
33739;DHT22;20063;51.730;11.110;2022-09-03T12:19:12;21.60;50.90
33739;DHT22;20063;51.730;11.110;2022-09-03T12:21:41;21.60;51.20
33739;DHT22;20063;51.730;11.110;2022-09-03T12:24:10;21.70;50.50
33739;DHT22;20063;51.730;11.110;2022-09-03T12:26:40;21.80;50.20
33739;DHT22;20063;51.730;11.110;2022-09-03T12:29:06;21.80;49.80
33739;DHT22;20063;51.730;11.110;2022-09-03T12:31:45;21.80;49.70
33739;DHT22;20063;51.730;11.110;2022-09-03T12:34:15;21.80;49.60
33739;DHT22;20063;51.730;11.110;2022-09-03T12:36:49;21.80;49.70
33739;DHT22;20063;51.730;11.110;2022-09-03T12:39:23;21.80;49.70
33739;DHT22;20063;51.730;11.110;2022-09-03T12:42:09;21.80;49.60
33739;DHT22;20063;51.730;11.110;2022-09-03T12:49:36;21.80;49.00
33739;DHT22;20063;51.730;11.110;2022-09-03T12:52:12;21.90;49.60
33739;DHT22;20063;51.730;11.110;2022-09-03T12:54:56;21.90;49.70
33739;DHT22;20063;51.730;11.110;2022-09-03T12:57:32;21.90;49.80
33739;DHT22;20063;51.730;11.110;2022-09-03T13:00:05;21.90;49.60
33739;DHT22;20063;51.730;11.110;2022-09-03T13:02:45;21.90;50.00
33739;DHT22;20063;51.730;11.110;2022-09-03T13:05:17;21.90;49.20
33739;DHT22;20063;51.730;11.110;2022-09-03T13:07:47;21.90;49.30
33739;DHT22;20063;51.730;11.110;2022-09-03T13:10:26;21.80;50.30
33739;DHT22;20063;51.730;11.110;2022-09-03T13:12:58;21.90;49.20
33739;DHT22;20063;51.730;11.110;2022-09-03T13:15:25;21.80;49.20
33739;DHT22;20063;51.730;11.110;2022-09-03T13:18:15;21.80;49.50
33739;DHT22;20063;51.730;11.110;2022-09-03T13:21:06;21.80;49.70
33739;DHT22;20063;51.730;11.110;2022-09-03T13:24:04;21.90;50.00
33739;DHT22;20063;51.730;11.110;2022-09-03T13:26:48;21.90;49.70
33739;DHT22;20063;51.730;11.110;2022-09-03T13:29:28;21.90;48.50
33739;DHT22;20063;51.730;11.110;2022-09-03T13:34:56;22.00;49.10
33739;DHT22;20063;51.730;11.110;2022-09-03T13:37:32;22.10;49.00
33739;DHT22;20063;51.730;11.110;2022-09-03T13:40:17;22.20;48.50
33739;DHT22;20063;51.730;11.110;2022-09-03T13:42:55;22.20;48.30
33739;DHT22;20063;51.730;11.110;2022-09-03T13:45:36;22.30;48.50
33739;DHT22;20063;51.730;11.110;2022-09-03T13:48:08;22.30;48.70
33739;DHT22;20063;51.730;11.110;2022-09-03T13:51:12;22.40;47.80
33739;DHT22;20063;51.730;11.110;2022-09-03T14:02:01;22.40;47.90
33739;DHT22;20063;51.730;11.110;2022-09-03T14:07:14;22.40;47.90
33739;DHT22;20063;51.730;11.110;2022-09-03T14:09:46;22.40;47.20
33739;DHT22;20063;51.730;11.110;2022-09-03T14:15:15;22.50;47.70
33739;DHT22;20063;51.730;11.110;2022-09-03T14:20:57;22.40;47.50
33739;DHT22;20063;51.730;11.110;2022-09-03T14:23:42;22.50;47.10
33739;DHT22;20063;51.730;11.110;2022-09-03T14:26:26;22.50;46.80
33739;DHT22;20063;51.730;11.110;2022-09-03T14:29:02;22.50;47.30
33739;DHT22;20063;51.730;11.110;2022-09-03T14:34:12;22.50;47.20
33739;DHT22;20063;51.730;11.110;2022-09-03T14:37:08;22.50;47.00
33739;DHT22;20063;51.730;11.110;2022-09-03T14:39:53;22.50;46.60
33739;DHT22;20063;51.730;11.110;2022-09-03T14:42:45;22.50;46.90
33739;DHT22;20063;51.730;11.110;2022-09-03T14:45:18;22.50;46.20
33739;DHT22;20063;51.730;11.110;2022-09-03T14:50:40;22.60;45.80
33739;DHT22;20063;51.730;11.110;2022-09-03T15:01:31;22.50;46.00
33739;DHT22;20063;51.730;11.110;2022-09-03T15:04:23;22.50;45.90
33739;DHT22;20063;51.730;11.110;2022-09-03T15:07:07;22.50;45.70
33739;DHT22;20063;51.730;11.110;2022-09-03T15:12:38;22.40;46.90
33739;DHT22;20063;51.730;11.110;2022-09-03T15:15:12;22.40;46.60
33739;DHT22;20063;51.730;11.110;2022-09-03T15:26:03;22.50;46.60
33739;DHT22;20063;51.730;11.110;2022-09-03T15:36:49;22.50;46.30
33739;DHT22;20063;51.730;11.110;2022-09-03T15:39:30;22.50;46.20
33739;DHT22;20063;51.730;11.110;2022-09-03T15:42:06;22.50;46.10
33739;DHT22;20063;51.730;11.110;2022-09-03T15:44:44;22.40;46.30
33739;DHT22;20063;51.730;11.110;2022-09-03T15:47:28;22.30;46.60
33739;DHT22;20063;51.730;11.110;2022-09-03T15:55:39;22.40;46.90
33739;DHT22;20063;51.730;11.110;2022-09-03T15:58:36;22.50;46.50
33739;DHT22;20063;51.730;11.110;2022-09-03T16:01:50;22.60;46.80
33739;DHT22;20063;51.730;11.110;2022-09-03T16:06:52;22.60;45.50
33739;DHT22;20063;51.730;11.110;2022-09-03T16:09:35;22.60;45.80
33739;DHT22;20063;51.730;11.110;2022-09-03T16:18:36;22.90;45.80
33739;DHT22;20063;51.730;11.110;2022-09-03T16:21:11;23.00;45.50
33739;DHT22;20063;51.730;11.110;2022-09-03T16:23:57;23.00;45.20
33739;DHT22;20063;51.730;11.110;2022-09-03T16:27:16;23.00;44.70
33739;DHT22;20063;51.730;11.110;2022-09-03T16:29:18;23.00;45.10
33739;DHT22;20063;51.730;11.110;2022-09-03T16:40:41;23.00;45.70
33739;DHT22;20063;51.730;11.110;2022-09-03T16:43:38;23.10;46.30
33739;DHT22;20063;51.730;11.110;2022-09-03T16:52:15;23.20;45.90
33739;DHT22;20063;51.730;11.110;2022-09-03T17:00:12;22.60;46.90
33739;DHT22;20063;51.730;11.110;2022-09-03T17:03:04;22.40;46.80
33739;DHT22;20063;51.730;11.110;2022-09-03T17:25:01;21.50;50.00
33739;DHT22;20063;51.730;11.110;2022-09-03T17:35:37;21.10;51.70
33739;DHT22;20063;51.730;11.110;2022-09-03T17:38:12;21.00;53.10
33739;DHT22;20063;51.730;11.110;2022-09-03T17:46:18;20.70;56.20
33739;DHT22;20063;51.730;11.110;2022-09-03T17:48:49;20.50;57.10
33739;DHT22;20063;51.730;11.110;2022-09-03T17:51:38;20.30;57.30
33739;DHT22;20063;51.730;11.110;2022-09-03T17:56:55;20.00;58.80
33739;DHT22;20063;51.730;11.110;2022-09-03T17:59:46;19.90;59.60
33739;DHT22;20063;51.730;11.110;2022-09-03T18:05:02;19.60;61.70
33739;DHT22;20063;51.730;11.110;2022-09-03T18:07:39;19.50;63.70
33739;DHT22;20063;51.730;11.110;2022-09-03T18:13:02;19.20;67.30
33739;DHT22;20063;51.730;11.110;2022-09-03T18:15:58;19.10;68.80
33739;DHT22;20063;51.730;11.110;2022-09-03T18:18:32;19.00;71.80
33739;DHT22;20063;51.730;11.110;2022-09-03T18:21:00;18.90;73.90
33739;DHT22;20063;51.730;11.110;2022-09-03T18:26:39;18.80;79.80
33739;DHT22;20063;51.730;11.110;2022-09-03T18:29:35;18.70;83.30
33739;DHT22;20063;51.730;11.110;2022-09-03T18:32:20;18.60;85.70
33739;DHT22;20063;51.730;11.110;2022-09-03T18:35:07;18.50;88.70
33739;DHT22;20063;51.730;11.110;2022-09-03T18:37:51;18.50;90.30
33739;DHT22;20063;51.730;11.110;2022-09-03T18:40:52;18.40;90.80
33739;DHT22;20063;51.730;11.110;2022-09-03T18:46:42;18.40;92.40
33739;DHT22;20063;51.730;11.110;2022-09-03T19:01:56;18.40;94.00
33739;DHT22;20063;51.730;11.110;2022-09-03T19:07:46;18.40;94.80
33739;DHT22;20063;51.730;11.110;2022-09-03T19:13:35;18.40;95.00
33739;DHT22;20063;51.730;11.110;2022-09-03T19:16:57;18.40;94.20
33739;DHT22;20063;51.730;11.110;2022-09-03T19:20:08;18.40;93.30
33739;DHT22;20063;51.730;11.110;2022-09-03T19:22:56;18.40;93.60
33739;DHT22;20063;51.730;11.110;2022-09-03T19:25:40;18.40;95.10
33739;DHT22;20063;51.730;11.110;2022-09-03T19:28:25;18.30;96.00
33739;DHT22;20063;51.730;11.110;2022-09-03T19:31:44;18.20;98.60
33739;DHT22;20063;51.730;11.110;2022-09-03T19:37:39;17.90;99.90
33739;DHT22;20063;51.730;11.110;2022-09-03T19:46:54;17.70;99.90
33739;DHT22;20063;51.730;11.110;2022-09-03T19:52:59;17.40;99.90
33739;DHT22;20063;51.730;11.110;2022-09-03T19:55:47;17.40;99.90
33739;DHT22;20063;51.730;11.110;2022-09-03T19:58:34;17.30;99.90
33739;DHT22;20063;51.730;11.110;2022-09-03T20:01:20;17.30;99.90
33739;DHT22;20063;51.730;11.110;2022-09-03T20:04:12;17.30;99.90
33739;DHT22;20063;51.730;11.110;2022-09-03T20:06:59;17.20;99.90
33739;DHT22;20063;51.730;11.110;2022-09-03T20:09:45;17.20;99.90
33739;DHT22;20063;51.730;11.110;2022-09-03T20:12:33;17.20;99.90
33739;DHT22;20063;51.730;11.110;2022-09-03T20:15:05;17.30;99.90
33739;DHT22;20063;51.730;11.110;2022-09-03T20:17:38;17.30;99.90
33739;DHT22;20063;51.730;11.110;2022-09-03T20:20:15;17.30;99.90
33739;DHT22;20063;51.730;11.110;2022-09-03T20:30:49;17.30;99.90
33739;DHT22;20063;51.730;11.110;2022-09-03T20:33:52;17.30;99.90
33739;DHT22;20063;51.730;11.110;2022-09-03T20:39:13;17.30;99.90
33739;DHT22;20063;51.730;11.110;2022-09-03T20:45:05;17.30;99.90
33739;DHT22;20063;51.730;11.110;2022-09-03T20:47:47;17.30;99.90
33739;DHT22;20063;51.730;11.110;2022-09-03T20:50:48;17.30;99.90
33739;DHT22;20063;51.730;11.110;2022-09-03T20:53:41;17.30;99.90
33739;DHT22;20063;51.730;11.110;2022-09-03T20:56:27;17.30;99.90
33739;DHT22;20063;51.730;11.110;2022-09-03T20:59:13;17.30;99.90
33739;DHT22;20063;51.730;11.110;2022-09-03T21:02:03;17.30;99.90
33739;DHT22;20063;51.730;11.110;2022-09-03T21:08:22;17.30;99.90
33739;DHT22;20063;51.730;11.110;2022-09-03T21:16:41;17.30;99.90
33739;DHT22;20063;51.730;11.110;2022-09-03T21:19:18;17.30;99.90
33739;DHT22;20063;51.730;11.110;2022-09-03T21:24:47;17.30;99.90
33739;DHT22;20063;51.730;11.110;2022-09-03T21:27:18;17.30;99.90
33739;DHT22;20063;51.730;11.110;2022-09-03T21:30:05;17.30;99.90
33739;DHT22;20063;51.730;11.110;2022-09-03T21:32:58;17.30;99.90
33739;DHT22;20063;51.730;11.110;2022-09-03T21:35:36;17.30;99.90
33739;DHT22;20063;51.730;11.110;2022-09-03T21:38:25;17.30;99.90